sensor_id;sensor_type;location;lat;lon;timestamp;temperature;humidity
38788;DHT22;24536;45.488;12.238;2022-07-24T00:00:00;30.60;51.50
38788;DHT22;24536;45.488;12.238;2022-07-24T00:02:25;30.60;51.20
38788;DHT22;24536;45.488;12.238;2022-07-24T00:04:51;30.30;50.20
38788;DHT22;24536;45.488;12.238;2022-07-24T00:07:22;30.30;50.60
38788;DHT22;24536;45.488;12.238;2022-07-24T00:09:47;30.30;50.90
38788;DHT22;24536;45.488;12.238;2022-07-24T00:12:13;30.20;49.70
38788;DHT22;24536;45.488;12.238;2022-07-24T00:14:39;29.80;50.50
38788;DHT22;24536;45.488;12.238;2022-07-24T00:17:04;29.80;50.80
38788;DHT22;24536;45.488;12.238;2022-07-24T00:19:30;29.90;51.50
38788;DHT22;24536;45.488;12.238;2022-07-24T00:21:56;29.80;51.70
38788;DHT22;24536;45.488;12.238;2022-07-24T00:24:22;29.70;51.90
38788;DHT22;24536;45.488;12.238;2022-07-24T00:26:48;29.80;52.30
38788;DHT22;24536;45.488;12.238;2022-07-24T00:29:14;29.90;52.60
38788;DHT22;24536;45.488;12.238;2022-07-24T00:31:39;29.90;53.00
38788;DHT22;24536;45.488;12.238;2022-07-24T00:34:05;29.90;53.00
38788;DHT22;24536;45.488;12.238;2022-07-24T00:36:31;30.00;53.50
38788;DHT22;24536;45.488;12.238;2022-07-24T00:38:56;30.00;53.70
38788;DHT22;24536;45.488;12.238;2022-07-24T00:41:22;30.00;53.60
38788;DHT22;24536;45.488;12.238;2022-07-24T00:44:12;30.00;53.80
38788;DHT22;24536;45.488;12.238;2022-07-24T00:46:39;30.00;53.90
38788;DHT22;24536;45.488;12.238;2022-07-24T00:49:07;29.90;54.00
38788;DHT22;24536;45.488;12.238;2022-07-24T00:51:34;30.00;54.00
38788;DHT22;24536;45.488;12.238;2022-07-24T00:54:03;29.90;54.10
38788;DHT22;24536;45.488;12.238;2022-07-24T00:56:29;29.90;54.10
38788;DHT22;24536;45.488;12.238;2022-07-24T00:58:55;29.90;54.30
38788;DHT22;24536;45.488;12.238;2022-07-24T01:01:21;29.90;54.40
38788;DHT22;24536;45.488;12.238;2022-07-24T01:03:47;29.90;54.40
38788;DHT22;24536;45.488;12.238;2022-07-24T01:06:13;29.90;54.40
38788;DHT22;24536;45.488;12.238;2022-07-24T01:08:40;29.90;54.40
38788;DHT22;24536;45.488;12.238;2022-07-24T01:11:06;29.90;54.50
38788;DHT22;24536;45.488;12.238;2022-07-24T01:13:32;29.80;54.50
38788;DHT22;24536;45.488;12.238;2022-07-24T01:15:58;29.70;54.80
38788;DHT22;24536;45.488;12.238;2022-07-24T01:18:24;29.70;55.00
38788;DHT22;24536;45.488;12.238;2022-07-24T01:20:50;29.70;55.00
38788;DHT22;24536;45.488;12.238;2022-07-24T01:23:16;29.60;55.10
38788;DHT22;24536;45.488;12.238;2022-07-24T01:25:42;29.60;55.30
38788;DHT22;24536;45.488;12.238;2022-07-24T01:28:08;29.50;55.40
38788;DHT22;24536;45.488;12.238;2022-07-24T01:30:34;29.50;55.60
38788;DHT22;24536;45.488;12.238;2022-07-24T01:33:00;29.50;55.70
38788;DHT22;24536;45.488;12.238;2022-07-24T01:35:26;29.50;55.80
38788;DHT22;24536;45.488;12.238;2022-07-24T01:37:52;29.50;55.80
38788;DHT22;24536;45.488;12.238;2022-07-24T01:40:18;29.40;55.70
38788;DHT22;24536;45.488;12.238;2022-07-24T01:42:44;29.50;55.90
38788;DHT22;24536;45.488;12.238;2022-07-24T01:45:10;29.40;56.00
38788;DHT22;24536;45.488;12.238;2022-07-24T01:47:36;29.50;56.20
38788;DHT22;24536;45.488;12.238;2022-07-24T01:50:02;29.50;56.30
38788;DHT22;24536;45.488;12.238;2022-07-24T01:52:28;29.40;56.20
38788;DHT22;24536;45.488;12.238;2022-07-24T01:54:54;29.40;56.50
38788;DHT22;24536;45.488;12.238;2022-07-24T01:57:19;29.40;56.60
38788;DHT22;24536;45.488;12.238;2022-07-24T01:59:46;29.40;57.10
38788;DHT22;24536;45.488;12.238;2022-07-24T02:02:12;29.30;57.00
38788;DHT22;24536;45.488;12.238;2022-07-24T02:04:37;29.30;57.20
38788;DHT22;24536;45.488;12.238;2022-07-24T02:07:03;29.30;57.20
38788;DHT22;24536;45.488;12.238;2022-07-24T02:09:29;29.30;57.20
38788;DHT22;24536;45.488;12.238;2022-07-24T02:11:55;29.30;57.20
38788;DHT22;24536;45.488;12.238;2022-07-24T02:14:21;29.20;57.20
38788;DHT22;24536;45.488;12.238;2022-07-24T02:16:47;29.20;57.30
38788;DHT22;24536;45.488;12.238;2022-07-24T02:19:13;29.20;57.20
38788;DHT22;24536;45.488;12.238;2022-07-24T02:21:38;28.90;57.40
38788;DHT22;24536;45.488;12.238;2022-07-24T02:24:04;28.70;58.10
38788;DHT22;24536;45.488;12.238;2022-07-24T02:26:30;28.70;58.50
38788;DHT22;24536;45.488;12.238;2022-07-24T02:28:56;28.60;58.20
38788;DHT22;24536;45.488;12.238;2022-07-24T02:31:22;28.70;58.40
38788;DHT22;24536;45.488;12.238;2022-07-24T02:33:48;28.80;58.40
38788;DHT22;24536;45.488;12.238;2022-07-24T02:36:15;28.80;58.30
38788;DHT22;24536;45.488;12.238;2022-07-24T02:38:42;28.80;58.30
38788;DHT22;24536;45.488;12.238;2022-07-24T02:41:07;28.80;58.30
38788;DHT22;24536;45.488;12.238;2022-07-24T02:43:33;28.80;58.30
38788;DHT22;24536;45.488;12.238;2022-07-24T02:45:59;28.80;58.40
38788;DHT22;24536;45.488;12.238;2022-07-24T02:48:25;28.90;58.40
38788;DHT22;24536;45.488;12.238;2022-07-24T02:50:52;28.90;58.40
38788;DHT22;24536;45.488;12.238;2022-07-24T02:53:17;29.00;58.40
38788;DHT22;24536;45.488;12.238;2022-07-24T02:55:43;29.00;58.20
38788;DHT22;24536;45.488;12.238;2022-07-24T02:58:09;29.00;58.30
38788;DHT22;24536;45.488;12.238;2022-07-24T03:00:35;29.00;58.30
38788;DHT22;24536;45.488;12.238;2022-07-24T03:03:01;28.90;58.20
38788;DHT22;24536;45.488;12.238;2022-07-24T03:05:27;28.90;58.40
38788;DHT22;24536;45.488;12.238;2022-07-24T03:07:53;28.90;58.50
38788;DHT22;24536;45.488;12.238;2022-07-24T03:10:19;28.90;58.50
38788;DHT22;24536;45.488;12.238;2022-07-24T03:12:45;28.90;58.60
38788;DHT22;24536;45.488;12.238;2022-07-24T03:15:11;28.90;58.50
38788;DHT22;24536;45.488;12.238;2022-07-24T03:17:37;28.90;58.50
38788;DHT22;24536;45.488;12.238;2022-07-24T03:20:04;28.90;58.60
38788;DHT22;24536;45.488;12.238;2022-07-24T03:22:30;28.90;58.70
38788;DHT22;24536;45.488;12.238;2022-07-24T03:24:55;28.80;58.80
38788;DHT22;24536;45.488;12.238;2022-07-24T03:27:21;28.80;58.80
38788;DHT22;24536;45.488;12.238;2022-07-24T03:29:48;28.80;58.80
38788;DHT22;24536;45.488;12.238;2022-07-24T03:32:14;28.80;58.90
38788;DHT22;24536;45.488;12.238;2022-07-24T03:34:39;28.80;58.90
38788;DHT22;24536;45.488;12.238;2022-07-24T03:37:05;28.70;59.00
38788;DHT22;24536;45.488;12.238;2022-07-24T03:39:31;28.70;58.90
38788;DHT22;24536;45.488;12.238;2022-07-24T03:41:57;28.60;59.20
38788;DHT22;24536;45.488;12.238;2022-07-24T03:44:22;28.60;59.30
38788;DHT22;24536;45.488;12.238;2022-07-24T03:46:48;28.40;59.90
38788;DHT22;24536;45.488;12.238;2022-07-24T03:49:14;28.20;60.50
38788;DHT22;24536;45.488;12.238;2022-07-24T03:51:39;27.90;61.10
38788;DHT22;24536;45.488;12.238;2022-07-24T03:54:05;27.70;61.90
38788;DHT22;24536;45.488;12.238;2022-07-24T03:56:31;27.60;62.00
38788;DHT22;24536;45.488;12.238;2022-07-24T03:58:56;27.40;62.70
38788;DHT22;24536;45.488;12.238;2022-07-24T04:01:22;27.20;63.70
38788;DHT22;24536;45.488;12.238;2022-07-24T04:03:48;27.20;63.20
38788;DHT22;24536;45.488;12.238;2022-07-24T04:06:14;27.40;63.20
38788;DHT22;24536;45.488;12.238;2022-07-24T04:08:40;27.50;62.30
38788;DHT22;24536;45.488;12.238;2022-07-24T04:11:06;27.60;62.20
38788;DHT22;24536;45.488;12.238;2022-07-24T04:13:33;27.60;62.00
38788;DHT22;24536;45.488;12.238;2022-07-24T04:15:59;27.70;61.90
38788;DHT22;24536;45.488;12.238;2022-07-24T04:18:25;27.50;61.80
38788;DHT22;24536;45.488;12.238;2022-07-24T04:20:51;27.40;62.20
38788;DHT22;24536;45.488;12.238;2022-07-24T04:23:17;27.40;62.60
38788;DHT22;24536;45.488;12.238;2022-07-24T04:25:43;27.40;62.70
38788;DHT22;24536;45.488;12.238;2022-07-24T04:28:08;27.30;62.90
38788;DHT22;24536;45.488;12.238;2022-07-24T04:30:34;27.10;62.90
38788;DHT22;24536;45.488;12.238;2022-07-24T04:33:00;27.10;63.40
38788;DHT22;24536;45.488;12.238;2022-07-24T04:35:26;27.00;63.30
38788;DHT22;24536;45.488;12.238;2022-07-24T04:37:52;26.70;64.10
38788;DHT22;24536;45.488;12.238;2022-07-24T04:40:17;26.70;64.60
38788;DHT22;24536;45.488;12.238;2022-07-24T04:42:43;26.70;64.50
38788;DHT22;24536;45.488;12.238;2022-07-24T04:45:09;26.90;63.90
38788;DHT22;24536;45.488;12.238;2022-07-24T04:47:36;27.00;63.80
38788;DHT22;24536;45.488;12.238;2022-07-24T04:50:04;26.80;64.00
38788;DHT22;24536;45.488;12.238;2022-07-24T04:52:30;26.60;64.60
38788;DHT22;24536;45.488;12.238;2022-07-24T04:54:56;26.70;64.60
38788;DHT22;24536;45.488;12.238;2022-07-24T04:57:22;26.90;64.30
38788;DHT22;24536;45.488;12.238;2022-07-24T04:59:48;27.00;64.10
38788;DHT22;24536;45.488;12.238;2022-07-24T05:02:14;27.00;63.90
38788;DHT22;24536;45.488;12.238;2022-07-24T05:04:39;27.00;64.00
38788;DHT22;24536;45.488;12.238;2022-07-24T05:07:05;27.00;63.80
38788;DHT22;24536;45.488;12.238;2022-07-24T05:09:31;27.10;63.60
38788;DHT22;24536;45.488;12.238;2022-07-24T05:11:57;27.20;63.60
38788;DHT22;24536;45.488;12.238;2022-07-24T05:14:23;27.20;63.50
38788;DHT22;24536;45.488;12.238;2022-07-24T05:16:48;27.30;63.00
38788;DHT22;24536;45.488;12.238;2022-07-24T05:19:14;27.40;63.00
38788;DHT22;24536;45.488;12.238;2022-07-24T05:21:39;27.30;63.10
38788;DHT22;24536;45.488;12.238;2022-07-24T05:24:06;27.40;63.00
38788;DHT22;24536;45.488;12.238;2022-07-24T05:26:31;27.50;62.90
38788;DHT22;24536;45.488;12.238;2022-07-24T05:29:01;27.50;62.80
38788;DHT22;24536;45.488;12.238;2022-07-24T05:31:27;27.60;62.70
38788;DHT22;24536;45.488;12.238;2022-07-24T05:33:54;27.60;62.70
38788;DHT22;24536;45.488;12.238;2022-07-24T05:36:20;27.70;62.60
38788;DHT22;24536;45.488;12.238;2022-07-24T05:38:46;27.70;62.40
38788;DHT22;24536;45.488;12.238;2022-07-24T05:41:12;27.80;62.20
38788;DHT22;24536;45.488;12.238;2022-07-24T05:43:38;27.80;62.10
38788;DHT22;24536;45.488;12.238;2022-07-24T05:46:04;27.80;62.10
38788;DHT22;24536;45.488;12.238;2022-07-24T05:48:30;27.90;62.00
38788;DHT22;24536;45.488;12.238;2022-07-24T05:50:56;28.00;62.00
38788;DHT22;24536;45.488;12.238;2022-07-24T05:53:22;28.00;61.80
38788;DHT22;24536;45.488;12.238;2022-07-24T05:55:49;28.10;61.70
38788;DHT22;24536;45.488;12.238;2022-07-24T05:58:14;28.30;61.50
38788;DHT22;24536;45.488;12.238;2022-07-24T06:00:40;28.30;61.10
38788;DHT22;24536;45.488;12.238;2022-07-24T06:03:06;28.40;60.70
38788;DHT22;24536;45.488;12.238;2022-07-24T06:05:32;28.40;60.70
38788;DHT22;24536;45.488;12.238;2022-07-24T06:07:58;28.40;60.50
38788;DHT22;24536;45.488;12.238;2022-07-24T06:10:24;28.50;60.10
38788;DHT22;24536;45.488;12.238;2022-07-24T06:12:50;28.50;60.00
38788;DHT22;24536;45.488;12.238;2022-07-24T06:15:15;28.50;59.80
38788;DHT22;24536;45.488;12.238;2022-07-24T06:17:41;28.50;59.40
38788;DHT22;24536;45.488;12.238;2022-07-24T06:20:08;28.60;59.50
38788;DHT22;24536;45.488;12.238;2022-07-24T06:22:40;28.70;59.80
38788;DHT22;24536;45.488;12.238;2022-07-24T06:25:06;28.70;59.20
38788;DHT22;24536;45.488;12.238;2022-07-24T06:27:32;28.70;59.20
38788;DHT22;24536;45.488;12.238;2022-07-24T06:29:58;28.80;59.20
38788;DHT22;24536;45.488;12.238;2022-07-24T06:32:24;28.90;58.70
38788;DHT22;24536;45.488;12.238;2022-07-24T06:34:50;28.90;58.40
38788;DHT22;24536;45.488;12.238;2022-07-24T06:37:15;29.00;58.20
38788;DHT22;24536;45.488;12.238;2022-07-24T06:39:41;29.00;57.10
38788;DHT22;24536;45.488;12.238;2022-07-24T06:42:07;29.10;57.70
38788;DHT22;24536;45.488;12.238;2022-07-24T06:44:32;29.10;57.60
38788;DHT22;24536;45.488;12.238;2022-07-24T06:47:01;29.20;57.20
38788;DHT22;24536;45.488;12.238;2022-07-24T06:49:27;29.30;57.10
38788;DHT22;24536;45.488;12.238;2022-07-24T06:51:53;29.30;56.80
38788;DHT22;24536;45.488;12.238;2022-07-24T06:54:18;29.30;56.30
38788;DHT22;24536;45.488;12.238;2022-07-24T06:56:44;29.30;56.30
38788;DHT22;24536;45.488;12.238;2022-07-24T06:59:10;29.30;56.10
38788;DHT22;24536;45.488;12.238;2022-07-24T07:01:35;29.40;56.40
38788;DHT22;24536;45.488;12.238;2022-07-24T07:04:01;29.50;56.70
38788;DHT22;24536;45.488;12.238;2022-07-24T07:06:27;29.60;56.50
38788;DHT22;24536;45.488;12.238;2022-07-24T07:08:52;29.60;56.30
38788;DHT22;24536;45.488;12.238;2022-07-24T07:11:18;29.70;56.50
38788;DHT22;24536;45.488;12.238;2022-07-24T07:13:44;29.70;56.40
38788;DHT22;24536;45.488;12.238;2022-07-24T07:16:09;29.80;56.10
38788;DHT22;24536;45.488;12.238;2022-07-24T07:18:35;29.90;55.80
38788;DHT22;24536;45.488;12.238;2022-07-24T07:21:02;30.00;56.30
38788;DHT22;24536;45.488;12.238;2022-07-24T07:23:28;30.00;55.50
38788;DHT22;24536;45.488;12.238;2022-07-24T07:25:54;30.00;55.10
38788;DHT22;24536;45.488;12.238;2022-07-24T07:28:20;30.10;55.20
38788;DHT22;24536;45.488;12.238;2022-07-24T07:30:46;30.10;55.20
38788;DHT22;24536;45.488;12.238;2022-07-24T07:33:12;30.20;54.90
38788;DHT22;24536;45.488;12.238;2022-07-24T07:35:38;30.20;54.90
38788;DHT22;24536;45.488;12.238;2022-07-24T07:38:04;30.30;54.80
38788;DHT22;24536;45.488;12.238;2022-07-24T07:40:30;30.40;54.70
38788;DHT22;24536;45.488;12.238;2022-07-24T07:42:55;30.40;54.60
38788;DHT22;24536;45.488;12.238;2022-07-24T07:45:21;30.50;53.40
38788;DHT22;24536;45.488;12.238;2022-07-24T07:47:47;30.50;54.10
38788;DHT22;24536;45.488;12.238;2022-07-24T07:50:13;30.60;54.20
38788;DHT22;24536;45.488;12.238;2022-07-24T07:52:38;30.60;54.20
38788;DHT22;24536;45.488;12.238;2022-07-24T07:55:05;30.70;54.50
38788;DHT22;24536;45.488;12.238;2022-07-24T07:57:31;30.70;54.30
38788;DHT22;24536;45.488;12.238;2022-07-24T07:59:57;30.80;53.90
38788;DHT22;24536;45.488;12.238;2022-07-24T08:02:22;30.90;53.80
38788;DHT22;24536;45.488;12.238;2022-07-24T08:04:48;30.90;53.40
38788;DHT22;24536;45.488;12.238;2022-07-24T08:07:14;30.90;53.50
38788;DHT22;24536;45.488;12.238;2022-07-24T08:09:39;31.00;53.30
38788;DHT22;24536;45.488;12.238;2022-07-24T08:12:05;31.10;53.60
38788;DHT22;24536;45.488;12.238;2022-07-24T08:14:32;31.10;53.60
38788;DHT22;24536;45.488;12.238;2022-07-24T08:16:58;31.20;53.50
38788;DHT22;24536;45.488;12.238;2022-07-24T08:19:24;31.30;53.40
38788;DHT22;24536;45.488;12.238;2022-07-24T08:21:49;31.30;53.20
38788;DHT22;24536;45.488;12.238;2022-07-24T08:24:16;31.40;53.30
38788;DHT22;24536;45.488;12.238;2022-07-24T08:26:47;31.50;52.60
38788;DHT22;24536;45.488;12.238;2022-07-24T08:29:14;31.50;52.60
38788;DHT22;24536;45.488;12.238;2022-07-24T08:31:40;31.50;52.00
38788;DHT22;24536;45.488;12.238;2022-07-24T08:34:06;31.60;52.20
38788;DHT22;24536;45.488;12.238;2022-07-24T08:36:31;31.60;52.00
38788;DHT22;24536;45.488;12.238;2022-07-24T08:38:57;31.80;52.70
38788;DHT22;24536;45.488;12.238;2022-07-24T08:41:23;31.80;52.80
38788;DHT22;24536;45.488;12.238;2022-07-24T08:43:49;31.90;52.40
38788;DHT22;24536;45.488;12.238;2022-07-24T08:46:15;32.00;52.50
38788;DHT22;24536;45.488;12.238;2022-07-24T08:48:45;32.00;52.80
38788;DHT22;24536;45.488;12.238;2022-07-24T08:51:12;32.10;51.70
38788;DHT22;24536;45.488;12.238;2022-07-24T08:53:40;32.20;51.40
38788;DHT22;24536;45.488;12.238;2022-07-24T08:56:06;32.20;51.40
38788;DHT22;24536;45.488;12.238;2022-07-24T08:58:36;32.30;51.20
38788;DHT22;24536;45.488;12.238;2022-07-24T09:01:03;32.30;49.80
38788;DHT22;24536;45.488;12.238;2022-07-24T09:03:28;32.30;50.20
38788;DHT22;24536;45.488;12.238;2022-07-24T09:06:02;32.30;50.90
38788;DHT22;24536;45.488;12.238;2022-07-24T09:08:32;32.40;50.60
38788;DHT22;24536;45.488;12.238;2022-07-24T09:10:59;32.40;50.60
38788;DHT22;24536;45.488;12.238;2022-07-24T09:13:27;32.60;50.80
38788;DHT22;24536;45.488;12.238;2022-07-24T09:15:55;32.60;49.80
38788;DHT22;24536;45.488;12.238;2022-07-24T09:18:27;32.70;49.90
38788;DHT22;24536;45.488;12.238;2022-07-24T09:20:54;32.70;48.90
38788;DHT22;24536;45.488;12.238;2022-07-24T09:23:21;32.80;50.10
38788;DHT22;24536;45.488;12.238;2022-07-24T09:25:54;32.90;50.30
38788;DHT22;24536;45.488;12.238;2022-07-24T09:28:20;33.00;50.10
38788;DHT22;24536;45.488;12.238;2022-07-24T09:30:46;33.00;49.90
38788;DHT22;24536;45.488;12.238;2022-07-24T09:33:14;33.10;49.80
38788;DHT22;24536;45.488;12.238;2022-07-24T09:35:49;33.20;50.00
38788;DHT22;24536;45.488;12.238;2022-07-24T09:38:17;33.10;49.40
38788;DHT22;24536;45.488;12.238;2022-07-24T09:41:06;33.20;49.80
38788;DHT22;24536;45.488;12.238;2022-07-24T09:43:34;33.30;50.20
38788;DHT22;24536;45.488;12.238;2022-07-24T09:51:04;33.70;47.50
38788;DHT22;24536;45.488;12.238;2022-07-24T09:53:31;33.80;48.30
38788;DHT22;24536;45.488;12.238;2022-07-24T09:56:06;33.80;48.30
38788;DHT22;24536;45.488;12.238;2022-07-24T09:58:37;33.90;48.10
38788;DHT22;24536;45.488;12.238;2022-07-24T10:01:05;34.00;47.00
38788;DHT22;24536;45.488;12.238;2022-07-24T10:03:34;34.00;45.50
38788;DHT22;24536;45.488;12.238;2022-07-24T10:06:02;34.10;45.90
38788;DHT22;24536;45.488;12.238;2022-07-24T10:08:31;34.20;45.60
38788;DHT22;24536;45.488;12.238;2022-07-24T10:10:57;34.30;45.20
38788;DHT22;24536;45.488;12.238;2022-07-24T10:13:24;34.50;44.30
38788;DHT22;24536;45.488;12.238;2022-07-24T10:18:46;34.60;43.40
38788;DHT22;24536;45.488;12.238;2022-07-24T10:21:16;34.70;43.00
38788;DHT22;24536;45.488;12.238;2022-07-24T10:29:11;35.10;41.40
38788;DHT22;24536;45.488;12.238;2022-07-24T10:31:42;35.20;41.70
38788;DHT22;24536;45.488;12.238;2022-07-24T10:42:12;35.60;41.50
38788;DHT22;24536;45.488;12.238;2022-07-24T10:44:37;35.70;41.40
38788;DHT22;24536;45.488;12.238;2022-07-24T10:47:13;35.80;41.10
38788;DHT22;24536;45.488;12.238;2022-07-24T10:52:26;36.00;41.80
38788;DHT22;24536;45.488;12.238;2022-07-24T10:55:30;36.10;41.60
38788;DHT22;24536;45.488;12.238;2022-07-24T11:00:29;36.30;42.00
38788;DHT22;24536;45.488;12.238;2022-07-24T11:03:03;36.40;42.10
38788;DHT22;24536;45.488;12.238;2022-07-24T11:05:33;36.60;42.30
38788;DHT22;24536;45.488;12.238;2022-07-24T11:10:48;37.00;42.60
38788;DHT22;24536;45.488;12.238;2022-07-24T11:27:20;37.70;40.60
38788;DHT22;24536;45.488;12.238;2022-07-24T11:29:52;38.00;40.40
38788;DHT22;24536;45.488;12.238;2022-07-24T11:32:18;38.10;39.60
38788;DHT22;24536;45.488;12.238;2022-07-24T11:34:46;38.10;39.60
38788;DHT22;24536;45.488;12.238;2022-07-24T11:37:12;38.30;39.00
38788;DHT22;24536;45.488;12.238;2022-07-24T11:39:40;38.50;38.70
38788;DHT22;24536;45.488;12.238;2022-07-24T11:42:08;38.80;37.90
38788;DHT22;24536;45.488;12.238;2022-07-24T11:44:45;39.10;37.30
38788;DHT22;24536;45.488;12.238;2022-07-24T11:47:17;39.50;36.40
38788;DHT22;24536;45.488;12.238;2022-07-24T11:49:47;39.70;36.40
38788;DHT22;24536;45.488;12.238;2022-07-24T11:52:16;40.00;35.10
38788;DHT22;24536;45.488;12.238;2022-07-24T11:54:42;40.20;35.90
38788;DHT22;24536;45.488;12.238;2022-07-24T11:59:43;40.60;34.70
38788;DHT22;24536;45.488;12.238;2022-07-24T12:02:10;40.80;34.90
38788;DHT22;24536;45.488;12.238;2022-07-24T12:04:38;40.80;33.00
38788;DHT22;24536;45.488;12.238;2022-07-24T12:07:09;41.00;33.50
38788;DHT22;24536;45.488;12.238;2022-07-24T12:09:56;41.00;32.90
38788;DHT22;24536;45.488;12.238;2022-07-24T12:12:37;41.10;32.90
38788;DHT22;24536;45.488;12.238;2022-07-24T12:15:13;41.20;32.80
38788;DHT22;24536;45.488;12.238;2022-07-24T12:20:40;41.50;30.80
38788;DHT22;24536;45.488;12.238;2022-07-24T12:23:08;41.70;31.90
38788;DHT22;24536;45.488;12.238;2022-07-24T12:25:34;41.70;31.60
38788;DHT22;24536;45.488;12.238;2022-07-24T12:33:08;42.00;30.50
38788;DHT22;24536;45.488;12.238;2022-07-24T12:35:51;42.10;29.80
38788;DHT22;24536;45.488;12.238;2022-07-24T12:38:40;42.20;30.00
38788;DHT22;24536;45.488;12.238;2022-07-24T12:41:10;42.20;30.00
38788;DHT22;24536;45.488;12.238;2022-07-24T12:46:23;42.30;29.70
38788;DHT22;24536;45.488;12.238;2022-07-24T12:51:50;42.40;29.90
38788;DHT22;24536;45.488;12.238;2022-07-24T12:54:24;42.60;29.90
38788;DHT22;24536;45.488;12.238;2022-07-24T12:56:53;42.60;29.80
38788;DHT22;24536;45.488;12.238;2022-07-24T12:59:29;42.60;30.00
38788;DHT22;24536;45.488;12.238;2022-07-24T13:02:30;42.60;30.00
38788;DHT22;24536;45.488;12.238;2022-07-24T13:04:52;42.60;30.50
38788;DHT22;24536;45.488;12.238;2022-07-24T13:07:20;42.60;29.80
38788;DHT22;24536;45.488;12.238;2022-07-24T13:09:45;42.70;30.10
38788;DHT22;24536;45.488;12.238;2022-07-24T13:12:12;42.80;29.90
38788;DHT22;24536;45.488;12.238;2022-07-24T13:14:38;42.70;30.10
38788;DHT22;24536;45.488;12.238;2022-07-24T13:17:09;42.60;30.20
38788;DHT22;24536;45.488;12.238;2022-07-24T13:19:39;42.50;29.90
38788;DHT22;24536;45.488;12.238;2022-07-24T13:22:06;42.40;29.70
38788;DHT22;24536;45.488;12.238;2022-07-24T13:24:32;42.40;30.00
38788;DHT22;24536;45.488;12.238;2022-07-24T13:27:04;42.40;30.10
38788;DHT22;24536;45.488;12.238;2022-07-24T13:29:30;42.30;30.10
38788;DHT22;24536;45.488;12.238;2022-07-24T13:31:56;42.10;30.30
38788;DHT22;24536;45.488;12.238;2022-07-24T13:34:22;42.10;30.50
38788;DHT22;24536;45.488;12.238;2022-07-24T13:36:48;41.90;30.40
38788;DHT22;24536;45.488;12.238;2022-07-24T13:39:14;41.90;30.20
38788;DHT22;24536;45.488;12.238;2022-07-24T13:41:40;41.90;30.40
38788;DHT22;24536;45.488;12.238;2022-07-24T13:44:06;42.00;30.80
38788;DHT22;24536;45.488;12.238;2022-07-24T13:46:33;41.90;30.50
38788;DHT22;24536;45.488;12.238;2022-07-24T13:49:01;41.80;30.20
38788;DHT22;24536;45.488;12.238;2022-07-24T13:51:27;41.70;30.00
38788;DHT22;24536;45.488;12.238;2022-07-24T13:53:53;41.70;30.10
38788;DHT22;24536;45.488;12.238;2022-07-24T13:56:20;41.80;30.50
38788;DHT22;24536;45.488;12.238;2022-07-24T13:58:48;41.70;30.40
38788;DHT22;24536;45.488;12.238;2022-07-24T14:01:14;41.70;30.80
38788;DHT22;24536;45.488;12.238;2022-07-24T14:03:42;41.60;30.60
38788;DHT22;24536;45.488;12.238;2022-07-24T14:06:09;41.60;30.70
38788;DHT22;24536;45.488;12.238;2022-07-24T14:08:36;41.50;30.80
38788;DHT22;24536;45.488;12.238;2022-07-24T14:11:02;41.50;30.90
38788;DHT22;24536;45.488;12.238;2022-07-24T14:13:28;41.40;30.90
38788;DHT22;24536;45.488;12.238;2022-07-24T14:15:54;41.30;30.90
38788;DHT22;24536;45.488;12.238;2022-07-24T14:18:20;41.20;31.10
38788;DHT22;24536;45.488;12.238;2022-07-24T14:20:46;41.20;31.60
38788;DHT22;24536;45.488;12.238;2022-07-24T14:23:11;41.10;32.00
38788;DHT22;24536;45.488;12.238;2022-07-24T14:25:37;41.00;31.80
38788;DHT22;24536;45.488;12.238;2022-07-24T14:28:03;40.90;31.70
38788;DHT22;24536;45.488;12.238;2022-07-24T14:30:30;40.80;32.00
38788;DHT22;24536;45.488;12.238;2022-07-24T14:32:55;40.70;31.90
38788;DHT22;24536;45.488;12.238;2022-07-24T14:35:21;40.60;32.20
38788;DHT22;24536;45.488;12.238;2022-07-24T14:37:47;40.50;32.20
38788;DHT22;24536;45.488;12.238;2022-07-24T14:40:13;40.40;32.10
38788;DHT22;24536;45.488;12.238;2022-07-24T14:42:38;40.30;32.20
38788;DHT22;24536;45.488;12.238;2022-07-24T14:45:05;40.20;32.20
38788;DHT22;24536;45.488;12.238;2022-07-24T14:47:30;40.10;32.80
38788;DHT22;24536;45.488;12.238;2022-07-24T14:49:56;40.00;32.60
38788;DHT22;24536;45.488;12.238;2022-07-24T14:52:22;39.90;32.70
38788;DHT22;24536;45.488;12.238;2022-07-24T14:54:49;39.80;32.70
38788;DHT22;24536;45.488;12.238;2022-07-24T14:57:16;39.60;32.80
38788;DHT22;24536;45.488;12.238;2022-07-24T14:59:41;39.50;32.60
38788;DHT22;24536;45.488;12.238;2022-07-24T15:02:08;39.40;32.50
38788;DHT22;24536;45.488;12.238;2022-07-24T15:04:35;39.30;32.80
38788;DHT22;24536;45.488;12.238;2022-07-24T15:07:00;39.20;33.10
38788;DHT22;24536;45.488;12.238;2022-07-24T15:09:26;39.10;32.90
38788;DHT22;24536;45.488;12.238;2022-07-24T15:11:52;39.00;33.00
38788;DHT22;24536;45.488;12.238;2022-07-24T15:14:17;38.90;33.20
38788;DHT22;24536;45.488;12.238;2022-07-24T15:16:43;38.70;33.10
38788;DHT22;24536;45.488;12.238;2022-07-24T15:19:09;38.60;33.50
38788;DHT22;24536;45.488;12.238;2022-07-24T15:21:35;38.60;33.60
38788;DHT22;24536;45.488;12.238;2022-07-24T15:24:02;38.40;33.10
38788;DHT22;24536;45.488;12.238;2022-07-24T15:26:28;38.30;33.20
38788;DHT22;24536;45.488;12.238;2022-07-24T15:28:53;38.20;33.20
38788;DHT22;24536;45.488;12.238;2022-07-24T15:31:19;38.10;33.70
38788;DHT22;24536;45.488;12.238;2022-07-24T15:33:46;38.00;33.60
38788;DHT22;24536;45.488;12.238;2022-07-24T15:36:12;38.00;33.50
38788;DHT22;24536;45.488;12.238;2022-07-24T15:38:38;37.90;33.60
38788;DHT22;24536;45.488;12.238;2022-07-24T15:41:04;37.80;33.70
38788;DHT22;24536;45.488;12.238;2022-07-24T15:43:31;37.70;33.90
38788;DHT22;24536;45.488;12.238;2022-07-24T15:45:56;37.60;34.10
38788;DHT22;24536;45.488;12.238;2022-07-24T15:48:23;37.60;34.30
38788;DHT22;24536;45.488;12.238;2022-07-24T15:50:48;37.50;33.80
38788;DHT22;24536;45.488;12.238;2022-07-24T15:53:14;37.50;34.00
38788;DHT22;24536;45.488;12.238;2022-07-24T15:55:41;37.40;34.30
38788;DHT22;24536;45.488;12.238;2022-07-24T15:58:06;37.30;34.30
38788;DHT22;24536;45.488;12.238;2022-07-24T16:00:32;37.30;34.50
38788;DHT22;24536;45.488;12.238;2022-07-24T16:02:58;37.20;34.20
38788;DHT22;24536;45.488;12.238;2022-07-24T16:05:24;37.20;34.10
38788;DHT22;24536;45.488;12.238;2022-07-24T16:07:51;37.10;34.20
38788;DHT22;24536;45.488;12.238;2022-07-24T16:10:16;37.00;34.30
38788;DHT22;24536;45.488;12.238;2022-07-24T16:12:43;37.00;34.30